Warning: Javascript must be enabled to use all the features on this page!


Page Loading - Please Wait...

Click to hideNews Bulletins

Peak Streamflow for the Nation

USGS 04215500 CAZENOVIA CREEK AT EBENEZER NY

Erie County, New York
Hydrologic Unit Code 04120103
Latitude  42°49'46.3", Longitude  78°46'30.1" NAD83
Drainage area 135  square miles
Contributing drainage area 135  square miles
Gage datum 603.80 feet above NAVD88
Output formats
Table
Graph
Tab-separated file
peakfq (watstore) format
Reselect output format
Water
Year
Date Gage
Height
(feet)
Stream-
flow
(cfs)
1941 1941-04-05 9.953 6,820
1942 1942-03-17 13.113 11,200
1943 1943-04-28 9.853 6,620
1944 1944-06-24 11.283 8,490
1945 1945-03-03 8.512,3 5,070
1946 1945-10-02 12.022,3 9,530
1947 1947-04-05 11.023 9,210
1948 1948-02-19 7.752,3 5,220
1949 1949-01-05 7.342,3 4,770
1950 1950-03-27 8.853 6,480
1951 1951-01-04 9.563 7,330
1952 1952-03-11 8.643 6,510
1953 1953-05-26 9.143 7,110
1954 1954-03-25 8.022,3 5,570
1955 1955-03-01 13.823,6 13,500
1956 1956-03-07 14.65 13,000
1957 1957-01-22 14.09 12,100
1958 1958-06-13 8.72 4,610
1959 1959-01-22 14.461 12,500
1960 1960-03-30 10.82 7,160
1961 1961-04-25 11.37 7,910
1962 1962-01-27 10.391,2 5,400
1963 1963-03-17 9.91 5,980
1964 1964-03-05 10.65 6,940
1965 1965-02-08 8.202 4,070
1966 1966-02-11 8.292 4,160
1967 1967-09-29 11.45 8,020
1968 1968-01-30 8.86 4,770
1969 1968-12-28 10.63 6,910
1970 1970-04-02 9.97 6,050
1971 1970-11-28 9.17 5,110
1972 1972-06-23 13.53 12,3009
1973 1972-12-06 11.55 9,270
1974 1974-03-05 9.192 5,990
1975 1975-01-29 11.71 9,490
1976 1976-03-03 11.432 9,110
1977 1977-04-23 12.05 10,000
1978 1978-04-05 10.662 8,010
1979 1979-09-14 13.28 12,000
1980 1980-03-21 8.65 5,230
1981 1980-10-26 10.322 7,540
1982 1982-03-13 8.152 4,740
1983 1982-12-25 6.982 3,510
1984 1984-06-18 9.50 6,410
1985 1984-12-29 11.86 9,420
1986 1986-01-20 12.761 7,0002
1987 1987-07-26 9.95 6,590
1988 1988-03-26 7.66 3,790
1989 1989-06-01 11.37 8,650
1990 1990-04-11 9.332 6,410
1991 1990-12-30 10.62 8,120
1992 1992-08-28 9.43 5,900
1993 1993-01-05 8.74 5,080
1994 1994-03-24 8.282 4,530
1995 1995-03-07 8.35 4,780
1996 1996-01-19 12.28 10,200
1997 1997-02-27 10.01 6,720
1998 1998-01-08 11.99 9,740
1999 1999-01-24 10.052 6,880
2000 2000-09-23 12.79 11,000
2001 2001-02-10 10.442 7,420
2002 2002-02-01 12.36 10,300
2003 2002-12-20 8.20 4,530
2004 2004-09-09 14.85 14,700
2005 2005-09-16 13.18 11,700
2006 2006-03-13 9.41 6,020
2007 2007-03-15 12.85 11,100
2008 2008-02-05 10.97 8,040
2009 2009-08-10 14.15 13,400
2010 2010-01-25 9.63 6,140
2011 2011-04-26 10.27 7,020
2012 2012-01-17 8.65 4,400
2013 2012-10-30 9.66 5,710
2014 2013-12-22 12.25 9,920
2015 2014-11-24 10.942 7,340
2016 2016-02-03 8.802 4,660
2017 2017-04-21 9.75 5,910
2018 2017-11-06 12.29 10,000
2019 2018-11-02 8.682 4,510
2020 2019-10-31 8.70 4,530
2021 2021-07-17 9.40 5,430
?
  Peak Gage-Height Qualification Codes.
?
  Peak Streamflow Qualification Codes.